createdAt,value
2023-03-16T00:02:05.724Z,97934.00
2023-03-16T00:04:37.678Z,97931.60
2023-03-16T00:07:10.834Z,97935.20
2023-03-16T00:09:41.479Z,97932.80
2023-03-16T00:12:16.573Z,97942.00
2023-03-16T00:14:45.973Z,97941.60
2023-03-16T00:17:19.998Z,97945.60
2023-03-16T00:19:49.041Z,97948.00
2023-03-16T00:22:16.450Z,97947.20
2023-03-16T00:24:43.649Z,97947.00
2023-03-16T00:27:15.865Z,97945.40
2023-03-16T00:29:46.928Z,97940.00
2023-03-16T00:32:26.007Z,97947.80
2023-03-16T00:34:53.274Z,97945.20
2023-03-16T00:37:23.887Z,97946.20
2023-03-16T00:39:52.687Z,97948.20
2023-03-16T00:42:20.555Z,97949.20
2023-03-16T00:44:47.535Z,97958.80
2023-03-16T00:47:14.530Z,97951.00
2023-03-16T00:49:43.980Z,97952.80
2023-03-16T00:52:15.916Z,97954.60
2023-03-16T00:54:45.500Z,97952.80
2023-03-16T00:57:18.712Z,97951.00
2023-03-16T00:59:46.647Z,97951.20
2023-03-16T01:02:16.344Z,97950.20
2023-03-16T01:04:43.885Z,97953.60
2023-03-16T01:07:15.021Z,97950.40
2023-03-16T01:09:43.549Z,97951.20
2023-03-16T01:12:15.288Z,97946.20
2023-03-16T01:14:45.888Z,97952.20
2023-03-16T01:17:14.725Z,97951.40
2023-03-16T01:19:43.728Z,97948.60
2023-03-16T01:22:11.819Z,97952.40
2023-03-16T01:24:39.691Z,97958.20
2023-03-16T01:27:07.882Z,97959.60
2023-03-16T01:29:35.523Z,97964.60
2023-03-16T01:32:04.341Z,97959.00
2023-03-16T01:34:33.722Z,97959.00
2023-03-16T01:37:01.238Z,97961.20
2023-03-16T01:39:36.360Z,97963.00
2023-03-16T01:42:03.708Z,97967.20
2023-03-16T01:45:32.661Z,97968.20
2023-03-16T01:47:59.519Z,97965.20
2023-03-16T01:50:27.710Z,97965.20
2023-03-16T01:52:55.034Z,97967.80
2023-03-16T01:55:22.595Z,97971.00
2023-03-16T01:57:49.526Z,97964.40
2023-03-16T02:00:23.344Z,97968.00
2023-03-16T02:03:20.055Z,97966.60
2023-03-16T02:06:01.075Z,97968.80
2023-03-16T02:08:29.092Z,97967.00
2023-03-16T02:10:56.897Z,97971.20
2023-03-16T02:13:29.564Z,97971.60
2023-03-16T02:15:56.326Z,97973.80
2023-03-16T02:18:23.097Z,97972.20
2023-03-16T02:21:07.258Z,97974.00
2023-03-16T02:23:33.996Z,97977.60
2023-03-16T02:26:12.635Z,97984.80
2023-03-16T02:29:21.077Z,97982.40
2023-03-16T02:31:48.638Z,97985.80
2023-03-16T02:34:17.740Z,97985.60
2023-03-16T02:36:48.532Z,97982.60
2023-03-16T02:39:16.215Z,97990.60
2023-03-16T02:41:47.307Z,97992.60
2023-03-16T02:44:24.249Z,98000.20
2023-03-16T02:46:57.727Z,98005.00
2023-03-16T02:49:38.883Z,98008.00
2023-03-16T02:52:08.191Z,98010.60
2023-03-16T02:54:35.233Z,98011.20
2023-03-16T02:57:02.407Z,98011.20
2023-03-16T02:59:29.617Z,98012.20
2023-03-16T03:01:56.850Z,98009.80
2023-03-16T03:04:24.708Z,98016.20
2023-03-16T03:06:52.154Z,98017.40
2023-03-16T03:09:20.844Z,98019.40
2023-03-16T03:11:48.859Z,98016.60
2023-03-16T03:14:16.863Z,98019.20
2023-03-16T03:16:47.648Z,98020.80
2023-03-16T03:19:15.437Z,98026.00
2023-03-16T03:21:42.126Z,98023.80
2023-03-16T03:24:09.886Z,98025.20
2023-03-16T03:26:40.081Z,98028.40
2023-03-16T03:29:09.648Z,98026.80
2023-03-16T03:31:36.602Z,98028.40
2023-03-16T03:34:06.658Z,98017.80
2023-03-16T03:36:35.156Z,98027.20
2023-03-16T03:39:05.211Z,98026.80
2023-03-16T03:41:33.378Z,98032.60
2023-03-16T03:44:01.154Z,98032.20
2023-03-16T03:46:28.013Z,98034.60
2023-03-16T03:48:54.781Z,98029.60
2023-03-16T03:51:21.832Z,98034.60
2023-03-16T03:54:14.482Z,98035.60
2023-03-16T03:56:41.108Z,98037.40
2023-03-16T03:59:11.164Z,98036.80
2023-03-16T04:02:13.317Z,98038.40
2023-03-16T04:04:44.612Z,98036.00
2023-03-16T04:07:12.686Z,98035.80
2023-03-16T04:09:39.705Z,98039.00
2023-03-16T04:12:07.369Z,98035.20
2023-03-16T04:14:35.086Z,98042.20
2023-03-16T04:17:04.790Z,98045.60
2023-03-16T04:19:32.132Z,98038.20
2023-03-16T04:21:59.685Z,98041.40
2023-03-16T04:24:26.448Z,98043.60
2023-03-16T04:26:54.274Z,98049.20
2023-03-16T04:29:21.308Z,98048.00
2023-03-16T04:31:48.360Z,98050.60
2023-03-16T04:34:15.694Z,98051.00
2023-03-16T04:36:42.768Z,98057.60
2023-03-16T04:39:10.595Z,98058.40
2023-03-16T04:41:37.598Z,98064.80
2023-03-16T04:44:09.961Z,98065.60
2023-03-16T04:46:36.884Z,98065.80
2023-03-16T04:49:09.663Z,98065.40
2023-03-16T04:51:40.562Z,98073.40
2023-03-16T04:54:09.325Z,98066.40
2023-03-16T04:56:41.444Z,98063.40
2023-03-16T04:59:14.071Z,98061.80
2023-03-16T05:01:45.405Z,98062.20
2023-03-16T05:04:18.948Z,98059.60
2023-03-16T05:06:46.526Z,98062.60
2023-03-16T05:09:14.023Z,98065.80
2023-03-16T05:11:40.668Z,98070.20
2023-03-16T05:14:09.256Z,98070.20
2023-03-16T05:16:45.411Z,98068.40
2023-03-16T05:19:12.517Z,98064.60
2023-03-16T05:21:39.198Z,98062.80
2023-03-16T05:24:09.711Z,98063.00
2023-03-16T05:26:36.355Z,98061.80
2023-03-16T05:29:05.064Z,98073.20
2023-03-16T05:31:37.162Z,98075.00
2023-03-16T05:34:08.711Z,98083.60
2023-03-16T05:36:35.951Z,98088.00
2023-03-16T05:39:08.553Z,98085.80
2023-03-16T05:41:37.392Z,98091.80
2023-03-16T05:44:13.662Z,98094.20
2023-03-16T05:47:00.687Z,98098.20
2023-03-16T05:49:28.283Z,98100.40
2023-03-16T05:51:55.647Z,98100.40
2023-03-16T05:54:22.737Z,98097.00
2023-03-16T05:56:49.398Z,98094.00
2023-03-16T05:59:17.994Z,98098.20
2023-03-16T06:01:46.792Z,98097.20
2023-03-16T06:04:13.547Z,98100.80
2023-03-16T06:06:40.755Z,98099.40
2023-03-16T06:09:13.940Z,98098.20
2023-03-16T06:11:41.576Z,98101.80
2023-03-16T06:14:08.280Z,98102.40
2023-03-16T06:16:36.181Z,98112.00
2023-03-16T06:19:03.078Z,98110.20
2023-03-16T06:21:30.275Z,98115.20
2023-03-16T06:24:02.511Z,98112.20
2023-03-16T06:26:29.786Z,98118.40
2023-03-16T06:28:56.774Z,98120.20
2023-03-16T06:31:23.626Z,98116.00
2023-03-16T06:33:50.512Z,98112.60
2023-03-16T06:36:18.633Z,98114.40
2023-03-16T06:38:47.680Z,98110.20
2023-03-16T06:41:26.808Z,98111.00
2023-03-16T06:43:54.204Z,98113.60
2023-03-16T06:46:21.203Z,98116.40
2023-03-16T06:48:48.150Z,98120.80
2023-03-16T06:51:16.768Z,98118.40
2023-03-16T06:53:45.004Z,98121.60
2023-03-16T06:56:11.822Z,98123.40
2023-03-16T06:58:40.303Z,98119.00
2023-03-16T07:01:07.138Z,98122.40
2023-03-16T07:03:33.872Z,98120.60
2023-03-16T07:06:06.594Z,98116.40
2023-03-16T07:08:33.391Z,98115.40
2023-03-16T07:11:00.431Z,98115.60
2023-03-16T07:13:27.669Z,98112.60
2023-03-16T07:15:54.915Z,98112.20
2023-03-16T07:18:22.241Z,98112.80
2023-03-16T07:20:49.630Z,98119.00
2023-03-16T07:23:16.434Z,98120.60
2023-03-16T07:25:44.755Z,98119.80
2023-03-16T07:28:12.407Z,98115.20
2023-03-16T07:30:48.146Z,98112.20
2023-03-16T07:33:23.445Z,98123.00
2023-03-16T07:35:50.243Z,98121.00
2023-03-16T07:38:17.207Z,98122.40
2023-03-16T07:40:44.039Z,98119.00
2023-03-16T07:43:15.263Z,98119.40
2023-03-16T07:45:53.188Z,98118.20
2023-03-16T07:48:20.974Z,98120.00
2023-03-16T07:50:51.685Z,98112.20
2023-03-16T07:53:18.735Z,98115.40
2023-03-16T07:55:49.545Z,98116.80
2023-03-16T07:58:16.880Z,98117.20
2023-03-16T08:00:43.665Z,98120.40
2023-03-16T08:03:10.414Z,98121.00
2023-03-16T08:05:38.984Z,98126.00
2023-03-16T08:08:10.024Z,98118.60
2023-03-16T08:10:37.729Z,98117.80
2023-03-16T08:13:14.643Z,98118.20
2023-03-16T08:15:50.391Z,98124.20
2023-03-16T08:18:23.957Z,98123.40
2023-03-16T08:20:51.005Z,98127.80
2023-03-16T08:23:18.109Z,98129.40
2023-03-16T08:25:46.206Z,98125.00
2023-03-16T08:28:16.029Z,98129.40
2023-03-16T08:30:53.296Z,98122.40
2023-03-16T08:33:36.123Z,98125.80
2023-03-16T08:36:06.755Z,98131.00
2023-03-16T08:38:33.633Z,98132.20
2023-03-16T08:41:03.041Z,98128.20
2023-03-16T08:43:29.662Z,98129.20
2023-03-16T08:45:57.344Z,98135.00
2023-03-16T08:48:26.583Z,98140.40
2023-03-16T08:50:54.126Z,98133.20
2023-03-16T08:53:21.735Z,98135.40
2023-03-16T08:55:48.598Z,98128.80
2023-03-16T08:58:15.334Z,98133.80
2023-03-16T09:00:44.313Z,98125.60
2023-03-16T09:03:12.196Z,98128.00
2023-03-16T09:05:38.853Z,98132.80
2023-03-16T09:08:06.221Z,98134.20
2023-03-16T09:10:33.771Z,98137.80
2023-03-16T09:13:00.584Z,98135.20
2023-03-16T09:15:29.235Z,98132.20
2023-03-16T09:17:57.382Z,98129.60
2023-03-16T09:20:30.173Z,98132.80
2023-03-16T09:22:58.836Z,98126.80
2023-03-16T09:25:26.205Z,98127.20
2023-03-16T09:27:52.859Z,98130.80
2023-03-16T09:30:19.822Z,98128.60
2023-03-16T09:34:11.936Z,98137.40
2023-03-16T09:36:38.534Z,98130.00
2023-03-16T09:39:05.123Z,98127.60
2023-03-16T09:41:50.585Z,98126.00
2023-03-16T09:44:50.418Z,98127.40
2023-03-16T09:47:27.486Z,98131.20
2023-03-16T09:50:00.036Z,98128.80
2023-03-16T09:53:02.785Z,98127.80
2023-03-16T09:55:37.723Z,98128.80
2023-03-16T09:58:17.721Z,98134.20
2023-03-16T10:01:35.799Z,98133.80
2023-03-16T10:04:33.515Z,98134.20
2023-03-16T10:07:00.979Z,98128.60
2023-03-16T10:09:36.430Z,98131.20
2023-03-16T10:12:07.805Z,98130.60
2023-03-16T10:14:58.353Z,98134.20
2023-03-16T10:17:39.220Z,98128.80
2023-03-16T10:20:14.837Z,98125.80
2023-03-16T10:22:47.975Z,98129.20
2023-03-16T10:25:39.960Z,98123.80
2023-03-16T10:28:06.656Z,98119.20
2023-03-16T10:30:37.350Z,98121.40
2023-03-16T10:33:13.279Z,98115.80
2023-03-16T10:36:20.841Z,98114.60
2023-03-16T10:38:51.850Z,98109.60
2023-03-16T10:41:18.453Z,98106.00
2023-03-16T10:43:47.613Z,98111.20
2023-03-16T10:46:15.193Z,98102.80
2023-03-16T10:48:43.248Z,98103.20
2023-03-16T10:51:17.642Z,98099.40
2023-03-16T10:53:44.802Z,98097.60
2023-03-16T10:56:28.119Z,98097.00
2023-03-16T10:58:55.082Z,98086.20
2023-03-16T11:01:29.442Z,98091.80
2023-03-16T11:03:58.811Z,98088.40
2023-03-16T11:06:33.027Z,98082.00
2023-03-16T11:09:33.156Z,98074.60
2023-03-16T11:12:26.191Z,98073.00
2023-03-16T11:14:54.219Z,98069.40
2023-03-16T11:17:44.868Z,98063.20
2023-03-16T11:20:33.112Z,98058.40
2023-03-16T11:23:01.727Z,98060.60
2023-03-16T11:25:46.982Z,98052.40
2023-03-16T11:28:34.062Z,98057.60
2023-03-16T11:31:22.131Z,98049.80
2023-03-16T11:33:49.242Z,98048.40
2023-03-16T11:36:39.985Z,98045.60
2023-03-16T11:39:28.408Z,98041.00
2023-03-16T11:42:15.683Z,98038.40
2023-03-16T11:44:57.747Z,98036.80
2023-03-16T11:47:52.632Z,98034.60
2023-03-16T11:50:53.002Z,98029.80
2023-03-16T11:53:38.349Z,98026.60
2023-03-16T11:56:31.964Z,98021.80
2023-03-16T11:59:26.118Z,98019.80
2023-03-16T12:02:23.077Z,98016.40
2023-03-16T12:05:17.804Z,97999.40
2023-03-16T12:08:24.644Z,97997.20
2023-03-16T12:11:04.394Z,97992.60
2023-03-16T12:13:52.423Z,97991.00
2023-03-16T12:16:50.293Z,97987.80
2023-03-16T12:19:49.175Z,97987.80
2023-03-16T12:22:33.022Z,97978.20
2023-03-16T12:25:02.014Z,97983.60
2023-03-16T12:27:37.606Z,97978.60
2023-03-16T12:30:36.208Z,97972.80
2023-03-16T12:33:22.199Z,97970.80
2023-03-16T12:36:33.829Z,97970.20
2023-03-16T12:39:13.691Z,97961.80
2023-03-16T12:42:04.087Z,97956.80
2023-03-16T12:44:49.038Z,97958.40
2023-03-16T12:47:22.934Z,97955.00
2023-03-16T12:49:52.028Z,97951.60
2023-03-16T12:52:18.875Z,97953.40
2023-03-16T12:55:05.930Z,97949.60
2023-03-16T12:57:33.781Z,97949.20
2023-03-16T13:00:02.002Z,97947.40
2023-03-16T13:02:37.145Z,97945.60
2023-03-16T13:05:16.566Z,97944.20
2023-03-16T13:07:52.689Z,97940.80
2023-03-16T13:10:22.810Z,97942.60
2023-03-16T13:12:51.472Z,97942.80
2023-03-16T13:15:22.139Z,97935.60
2023-03-16T13:18:04.529Z,97936.00
2023-03-16T13:21:02.404Z,97928.00
2023-03-16T13:24:01.284Z,97929.80
2023-03-16T13:26:47.581Z,97919.20
2023-03-16T13:29:24.624Z,97920.60
2023-03-16T13:31:53.181Z,97927.60
2023-03-16T13:34:26.535Z,97923.40
2023-03-16T13:36:57.641Z,97923.00
2023-03-16T13:39:28.658Z,97920.20
2023-03-16T13:42:05.044Z,97921.00
2023-03-16T13:44:32.950Z,97916.40
2023-03-16T13:47:05.558Z,97918.20
2023-03-16T13:49:32.184Z,97913.00
2023-03-16T13:51:59.686Z,97909.20
2023-03-16T13:54:31.725Z,97910.80
2023-03-16T13:57:07.286Z,97913.00
2023-03-16T13:59:34.076Z,97910.40
2023-03-16T14:02:04.392Z,97908.00
2023-03-16T14:04:34.004Z,97904.20
2023-03-16T14:07:04.337Z,97911.00
2023-03-16T14:09:35.912Z,97902.80
2023-03-16T14:12:03.693Z,97905.80
2023-03-16T14:14:39.335Z,97896.80
2023-03-16T14:17:14.964Z,97894.60
2023-03-16T14:19:57.132Z,97896.20
2023-03-16T14:22:34.283Z,97893.00
2023-03-16T14:25:04.706Z,97892.60
2023-03-16T14:27:44.335Z,97885.80
2023-03-16T14:30:16.773Z,97885.40
2023-03-16T14:33:00.353Z,97883.60
2023-03-16T14:35:41.211Z,97887.20
2023-03-16T14:38:37.223Z,97881.00
2023-03-16T14:41:27.331Z,97883.80
2023-03-16T14:44:00.370Z,97886.80
2023-03-16T14:46:42.421Z,97879.20
2023-03-16T14:49:33.131Z,97876.40
2023-03-16T14:52:27.408Z,97876.40
2023-03-16T14:54:55.378Z,97871.40
2023-03-16T14:57:23.079Z,97872.60
2023-03-16T14:59:49.956Z,97874.00
2023-03-16T15:02:25.083Z,97873.00
2023-03-16T15:04:52.525Z,97880.60
2023-03-16T15:07:30.918Z,97876.40
2023-03-16T15:10:07.107Z,97865.20
2023-03-16T15:12:34.875Z,97869.00
2023-03-16T15:15:17.582Z,97865.20
2023-03-16T15:17:46.404Z,97872.20
2023-03-16T15:20:20.152Z,97875.80
2023-03-16T15:22:49.898Z,97873.80
2023-03-16T15:25:44.732Z,97871.80
2023-03-16T15:28:18.918Z,97874.20
2023-03-16T15:30:49.640Z,97868.80
2023-03-16T15:33:17.293Z,97868.20
2023-03-16T15:35:46.958Z,97869.40
2023-03-16T15:38:24.370Z,97867.80
2023-03-16T15:40:53.206Z,97865.60
2023-03-16T15:43:23.590Z,97859.60
2023-03-16T15:45:52.311Z,97860.40
2023-03-16T15:48:24.532Z,97860.00
2023-03-16T15:51:02.005Z,97850.80
2023-03-16T15:53:38.112Z,97844.60
2023-03-16T15:56:13.653Z,97843.60
2023-03-16T15:58:45.718Z,97843.60
2023-03-16T16:01:45.498Z,97837.80
2023-03-16T16:04:23.617Z,97834.80
2023-03-16T16:06:56.716Z,97833.00
2023-03-16T16:09:23.837Z,97839.40
2023-03-16T16:11:51.471Z,97836.80
2023-03-16T16:14:25.355Z,97845.60
2023-03-16T16:16:54.323Z,97842.40
2023-03-16T16:19:21.639Z,97842.80
2023-03-16T16:21:48.867Z,97848.00
2023-03-16T16:24:18.205Z,97846.80
2023-03-16T16:26:55.657Z,97846.60
2023-03-16T16:29:27.515Z,97847.40
2023-03-16T16:31:55.404Z,97848.20
2023-03-16T16:34:25.118Z,97846.80
2023-03-16T16:36:54.334Z,97848.80
2023-03-16T16:39:22.289Z,97850.20
2023-03-16T16:41:54.412Z,97849.40
2023-03-16T16:44:34.415Z,97845.60
2023-03-16T16:47:03.652Z,97857.40
2023-03-16T16:49:31.349Z,97856.40
2023-03-16T16:51:59.308Z,97866.00
2023-03-16T16:54:31.078Z,97867.40
2023-03-16T16:57:00.556Z,97864.00
2023-03-16T16:59:37.760Z,97862.00
2023-03-16T17:02:42.066Z,97869.00
2023-03-16T17:05:17.822Z,97870.60
2023-03-16T17:07:44.637Z,97868.40
2023-03-16T17:10:18.041Z,97868.80
2023-03-16T17:12:46.036Z,97871.60
2023-03-16T17:15:30.454Z,97870.00
2023-03-16T17:18:24.372Z,97867.80
2023-03-16T17:20:52.385Z,97870.60
2023-03-16T17:23:34.916Z,97877.20
2023-03-16T17:26:11.210Z,97884.60
2023-03-16T17:28:45.561Z,97887.40
2023-03-16T17:31:19.392Z,97885.00
2023-03-16T17:33:46.185Z,97884.00
2023-03-16T17:36:17.496Z,97881.60
2023-03-16T17:38:44.232Z,97879.20
2023-03-16T17:41:23.593Z,97879.80
2023-03-16T17:43:56.643Z,97875.60
2023-03-16T17:46:28.898Z,97879.80
2023-03-16T17:48:56.403Z,97885.00
2023-03-16T17:51:26.017Z,97889.80
2023-03-16T17:53:53.975Z,97887.60
2023-03-16T17:56:26.916Z,97880.00
2023-03-16T17:58:58.760Z,97873.60
2023-03-16T18:01:35.359Z,97878.60
2023-03-16T18:04:02.663Z,97878.00
2023-03-16T18:06:31.387Z,97878.40
2023-03-16T18:08:58.217Z,97877.60
2023-03-16T18:11:39.845Z,97883.20
2023-03-16T18:14:19.622Z,97882.60
2023-03-16T18:16:46.235Z,97883.20
2023-03-16T18:19:25.292Z,97884.00
2023-03-16T18:21:53.723Z,97886.00
2023-03-16T18:24:22.315Z,97879.60
2023-03-16T18:26:49.085Z,97883.80
2023-03-16T18:29:15.697Z,97882.80
2023-03-16T18:31:45.782Z,97882.60
2023-03-16T18:34:23.844Z,97882.20
2023-03-16T18:36:53.349Z,97880.60
2023-03-16T18:39:22.068Z,97880.60
2023-03-16T18:41:48.951Z,97882.40
2023-03-16T18:44:25.866Z,97882.60
2023-03-16T18:47:01.158Z,97893.80
2023-03-16T18:49:36.839Z,97889.20
2023-03-16T18:52:12.543Z,97885.20
2023-03-16T18:54:40.782Z,97880.60
2023-03-16T18:57:36.870Z,97872.60
2023-03-16T19:00:04.467Z,97875.40
2023-03-16T19:02:41.366Z,97877.40
2023-03-16T19:05:16.866Z,97874.80
2023-03-16T19:07:48.759Z,97876.20
2023-03-16T19:10:26.037Z,97879.00
2023-03-16T19:12:53.162Z,97878.20
2023-03-16T19:15:21.683Z,97880.60
2023-03-16T19:17:50.247Z,97885.20
2023-03-16T19:20:24.014Z,97882.80
2023-03-16T19:23:07.824Z,97877.60
2023-03-16T19:25:42.320Z,97877.60
2023-03-16T19:28:24.326Z,97876.40
2023-03-16T19:30:50.942Z,97880.20
2023-03-16T19:33:25.992Z,97880.60
2023-03-16T19:35:54.929Z,97878.80
2023-03-16T19:38:23.851Z,97873.80
2023-03-16T19:40:59.989Z,97879.60
2023-03-16T19:43:28.716Z,97876.40
2023-03-16T19:45:56.638Z,97875.80
2023-03-16T19:48:33.735Z,97874.20
2023-03-16T19:51:01.403Z,97873.60
2023-03-16T19:53:28.014Z,97876.00
2023-03-16T19:55:54.857Z,97875.20
2023-03-16T19:58:51.184Z,97876.40
2023-03-16T20:01:24.937Z,97865.60
2023-03-16T20:03:52.836Z,97869.40
2023-03-16T20:06:23.390Z,97871.20
2023-03-16T20:08:51.823Z,97866.40
2023-03-16T20:11:27.359Z,97865.00
2023-03-16T20:13:56.031Z,97859.80
2023-03-16T20:16:33.638Z,97861.00
2023-03-16T20:19:10.166Z,97859.60
2023-03-16T20:21:36.809Z,97863.00
2023-03-16T20:24:04.222Z,97861.60
2023-03-16T20:26:32.844Z,97857.40
2023-03-16T20:29:00.902Z,97853.20
2023-03-16T20:31:34.568Z,97849.20
2023-03-16T20:34:01.667Z,97846.20
2023-03-16T20:36:28.346Z,97843.20
2023-03-16T20:38:54.949Z,97844.80
2023-03-16T20:41:27.860Z,97847.00
2023-03-16T20:43:58.634Z,97838.60
2023-03-16T20:46:29.682Z,97840.20
2023-03-16T20:48:57.521Z,97840.80
2023-03-16T20:51:24.654Z,97840.80
2023-03-16T20:53:51.468Z,97839.60
2023-03-16T20:56:25.911Z,97843.60
2023-03-16T20:58:55.970Z,97841.80
2023-03-16T21:01:24.601Z,97838.60
2023-03-16T21:03:55.377Z,97839.80
2023-03-16T21:06:29.986Z,97834.80
2023-03-16T21:08:59.956Z,97836.80
2023-03-16T21:11:38.660Z,97836.80
2023-03-16T21:14:15.460Z,97834.80
2023-03-16T21:16:42.927Z,97831.00
2023-03-16T21:19:21.812Z,97829.40
2023-03-16T21:21:49.260Z,97829.40
2023-03-16T21:24:16.158Z,97834.40
2023-03-16T21:26:44.973Z,97837.40
2023-03-16T21:29:20.798Z,97830.40
2023-03-16T21:31:48.483Z,97831.60
2023-03-16T21:34:25.837Z,97829.40
2023-03-16T21:36:52.741Z,97825.20
2023-03-16T21:39:23.786Z,97823.40
2023-03-16T21:41:50.874Z,97826.60
2023-03-16T21:44:18.525Z,97833.80
2023-03-16T21:46:47.282Z,97833.40
2023-03-16T21:49:15.861Z,97825.60
2023-03-16T21:51:43.354Z,97817.80
2023-03-16T21:54:15.887Z,97816.60
2023-03-16T21:56:44.110Z,97814.20
2023-03-16T21:59:11.689Z,97815.60
2023-03-16T22:01:50.911Z,97807.20
2023-03-16T22:04:27.364Z,97797.60
2023-03-16T22:06:53.972Z,97795.80
2023-03-16T22:09:30.030Z,97793.40
2023-03-16T22:11:56.972Z,97795.80
2023-03-16T22:14:23.532Z,97791.40
2023-03-16T22:16:50.379Z,97797.20
2023-03-16T22:19:18.059Z,97796.60
2023-03-16T22:21:47.220Z,97788.20
2023-03-16T22:24:24.985Z,97784.60
2023-03-16T22:26:52.729Z,97791.00
2023-03-16T22:29:33.665Z,97790.40
2023-03-16T22:32:07.320Z,97790.00
2023-03-16T22:34:48.017Z,97790.20
2023-03-16T22:37:22.887Z,97787.00
2023-03-16T22:39:50.359Z,97782.20
2023-03-16T22:42:38.581Z,97786.20
2023-03-16T22:45:24.731Z,97784.80
2023-03-16T22:47:53.104Z,97775.60
2023-03-16T22:50:21.641Z,97773.00
2023-03-16T22:52:52.490Z,97767.60
2023-03-16T22:55:26.312Z,97770.20
2023-03-16T22:58:42.916Z,97768.60
2023-03-16T23:01:34.961Z,97772.00
2023-03-16T23:04:02.440Z,97764.20
2023-03-16T23:06:32.600Z,97765.80
2023-03-16T23:08:59.572Z,97760.40
2023-03-16T23:11:31.348Z,97760.80
2023-03-16T23:13:59.830Z,97764.00
2023-03-16T23:16:35.723Z,97764.00
2023-03-16T23:19:09.834Z,97766.00
2023-03-16T23:21:42.115Z,97767.40
2023-03-16T23:24:08.764Z,97759.60
2023-03-16T23:26:35.794Z,97759.60
2023-03-16T23:29:02.532Z,97755.60
2023-03-16T23:31:29.465Z,97761.40
2023-03-16T23:33:56.480Z,97768.80
2023-03-16T23:36:25.961Z,97768.20
2023-03-16T23:38:53.423Z,97764.20
2023-03-16T23:41:24.876Z,97761.00
2023-03-16T23:43:53.250Z,97762.40
2023-03-16T23:46:24.271Z,97762.20
2023-03-16T23:48:53.885Z,97761.20
2023-03-16T23:51:27.082Z,97759.60
2023-03-16T23:53:54.008Z,97757.60
2023-03-16T23:56:21.575Z,97763.00
2023-03-16T23:58:49.062Z,97764.00
